sensor_id;sensor_type;location;lat;lon;timestamp;temperature;humidity
39777;DHT22;25453;48.162;14.510;2023-11-19T00:00:32;7.30;73.90
39777;DHT22;25453;48.162;14.510;2023-11-19T00:02:59;7.20;74.20
39777;DHT22;25453;48.162;14.510;2023-11-19T00:05:26;7.30;74.40
39777;DHT22;25453;48.162;14.510;2023-11-19T00:07:54;7.30;74.60
39777;DHT22;25453;48.162;14.510;2023-11-19T00:10:21;7.30;74.70
39777;DHT22;25453;48.162;14.510;2023-11-19T00:12:48;7.30;74.70
39777;DHT22;25453;48.162;14.510;2023-11-19T00:15:17;7.40;74.80
39777;DHT22;25453;48.162;14.510;2023-11-19T00:17:46;7.30;74.90
39777;DHT22;25453;48.162;14.510;2023-11-19T00:20:18;7.30;74.90
39777;DHT22;25453;48.162;14.510;2023-11-19T00:22:46;7.30;75.00
39777;DHT22;25453;48.162;14.510;2023-11-19T00:25:16;7.30;75.30
39777;DHT22;25453;48.162;14.510;2023-11-19T00:27:43;7.40;75.40
39777;DHT22;25453;48.162;14.510;2023-11-19T00:30:13;7.40;75.60
39777;DHT22;25453;48.162;14.510;2023-11-19T00:32:41;7.40;75.50
39777;DHT22;25453;48.162;14.510;2023-11-19T00:35:08;7.40;75.70
39777;DHT22;25453;48.162;14.510;2023-11-19T00:37:42;7.50;75.70
39777;DHT22;25453;48.162;14.510;2023-11-19T00:40:15;7.50;75.50
39777;DHT22;25453;48.162;14.510;2023-11-19T00:42:48;7.40;75.60
39777;DHT22;25453;48.162;14.510;2023-11-19T00:45:15;7.40;75.60
39777;DHT22;25453;48.162;14.510;2023-11-19T00:47:43;7.40;75.80
39777;DHT22;25453;48.162;14.510;2023-11-19T00:50:10;7.40;75.80
39777;DHT22;25453;48.162;14.510;2023-11-19T00:52:38;7.40;75.80
39777;DHT22;25453;48.162;14.510;2023-11-19T00:55:05;7.40;75.90
39777;DHT22;25453;48.162;14.510;2023-11-19T00:57:34;7.40;76.10
39777;DHT22;25453;48.162;14.510;2023-11-19T01:00:02;7.40;76.10
39777;DHT22;25453;48.162;14.510;2023-11-19T01:02:37;7.40;76.20
39777;DHT22;25453;48.162;14.510;2023-11-19T01:05:07;7.40;76.30
39777;DHT22;25453;48.162;14.510;2023-11-19T01:07:34;7.40;76.40
39777;DHT22;25453;48.162;14.510;2023-11-19T01:10:01;7.40;76.40
39777;DHT22;25453;48.162;14.510;2023-11-19T01:12:29;7.40;76.20
39777;DHT22;25453;48.162;14.510;2023-11-19T01:14:58;7.40;76.30
39777;DHT22;25453;48.162;14.510;2023-11-19T01:17:25;7.40;76.40
39777;DHT22;25453;48.162;14.510;2023-11-19T01:19:53;7.30;76.30
39777;DHT22;25453;48.162;14.510;2023-11-19T01:22:20;7.30;76.30
39777;DHT22;25453;48.162;14.510;2023-11-19T01:24:48;7.20;76.30
39777;DHT22;25453;48.162;14.510;2023-11-19T01:27:16;7.20;76.50
39777;DHT22;25453;48.162;14.510;2023-11-19T01:29:43;7.20;76.50
39777;DHT22;25453;48.162;14.510;2023-11-19T01:32:10;7.20;76.70
39777;DHT22;25453;48.162;14.510;2023-11-19T01:34:37;7.20;76.80
39777;DHT22;25453;48.162;14.510;2023-11-19T01:37:04;7.20;76.70
39777;DHT22;25453;48.162;14.510;2023-11-19T01:39:31;7.20;76.80
39777;DHT22;25453;48.162;14.510;2023-11-19T01:41:58;7.20;76.80
39777;DHT22;25453;48.162;14.510;2023-11-19T01:44:24;7.20;76.80
39777;DHT22;25453;48.162;14.510;2023-11-19T01:46:51;7.20;76.90
39777;DHT22;25453;48.162;14.510;2023-11-19T01:49:19;7.20;76.80
39777;DHT22;25453;48.162;14.510;2023-11-19T01:51:46;7.20;76.70
39777;DHT22;25453;48.162;14.510;2023-11-19T01:54:14;7.10;76.50
39777;DHT22;25453;48.162;14.510;2023-11-19T01:56:42;7.10;76.60
39777;DHT22;25453;48.162;14.510;2023-11-19T01:59:10;7.10;76.60
39777;DHT22;25453;48.162;14.510;2023-11-19T02:01:38;7.00;76.70
39777;DHT22;25453;48.162;14.510;2023-11-19T02:04:07;7.00;76.60
39777;DHT22;25453;48.162;14.510;2023-11-19T02:06:37;7.00;76.90
39777;DHT22;25453;48.162;14.510;2023-11-19T02:09:04;7.00;77.10
39777;DHT22;25453;48.162;14.510;2023-11-19T02:11:34;7.10;77.10
39777;DHT22;25453;48.162;14.510;2023-11-19T02:14:02;7.10;77.00
39777;DHT22;25453;48.162;14.510;2023-11-19T02:16:31;7.10;76.80
39777;DHT22;25453;48.162;14.510;2023-11-19T02:18:58;7.10;77.00
39777;DHT22;25453;48.162;14.510;2023-11-19T02:21:25;7.10;77.20
39777;DHT22;25453;48.162;14.510;2023-11-19T02:23:52;7.10;77.30
39777;DHT22;25453;48.162;14.510;2023-11-19T02:26:32;7.10;77.10
39777;DHT22;25453;48.162;14.510;2023-11-19T02:29:02;7.10;77.10
39777;DHT22;25453;48.162;14.510;2023-11-19T02:31:34;7.10;77.20
39777;DHT22;25453;48.162;14.510;2023-11-19T02:34:02;7.10;77.10
39777;DHT22;25453;48.162;14.510;2023-11-19T02:36:29;7.20;77.10
39777;DHT22;25453;48.162;14.510;2023-11-19T02:38:56;7.20;77.20
39777;DHT22;25453;48.162;14.510;2023-11-19T02:41:23;7.20;77.10
39777;DHT22;25453;48.162;14.510;2023-11-19T02:43:53;7.20;77.00
39777;DHT22;25453;48.162;14.510;2023-11-19T02:46:20;7.20;77.10
39777;DHT22;25453;48.162;14.510;2023-11-19T02:48:47;7.20;76.90
39777;DHT22;25453;48.162;14.510;2023-11-19T02:51:14;7.10;76.90
39777;DHT22;25453;48.162;14.510;2023-11-19T02:53:41;7.10;77.00
39777;DHT22;25453;48.162;14.510;2023-11-19T02:56:11;7.10;77.00
39777;DHT22;25453;48.162;14.510;2023-11-19T02:58:52;7.10;77.10
39777;DHT22;25453;48.162;14.510;2023-11-19T03:01:26;7.10;77.20
39777;DHT22;25453;48.162;14.510;2023-11-19T03:03:58;7.10;77.20
39777;DHT22;25453;48.162;14.510;2023-11-19T03:06:26;7.10;77.20
39777;DHT22;25453;48.162;14.510;2023-11-19T03:08:54;7.10;77.30
39777;DHT22;25453;48.162;14.510;2023-11-19T03:11:21;7.10;77.30
39777;DHT22;25453;48.162;14.510;2023-11-19T03:13:48;7.10;77.20
39777;DHT22;25453;48.162;14.510;2023-11-19T03:16:15;7.10;77.20
39777;DHT22;25453;48.162;14.510;2023-11-19T03:18:44;7.10;77.20
39777;DHT22;25453;48.162;14.510;2023-11-19T03:21:11;7.10;77.00
39777;DHT22;25453;48.162;14.510;2023-11-19T03:23:39;7.00;77.00
39777;DHT22;25453;48.162;14.510;2023-11-19T03:26:07;7.00;77.10
39777;DHT22;25453;48.162;14.510;2023-11-19T03:28:35;7.00;77.30
39777;DHT22;25453;48.162;14.510;2023-11-19T03:31:05;7.00;77.40
39777;DHT22;25453;48.162;14.510;2023-11-19T03:33:35;7.00;77.30
39777;DHT22;25453;48.162;14.510;2023-11-19T03:36:05;7.00;77.40
39777;DHT22;25453;48.162;14.510;2023-11-19T03:38:32;7.00;77.30
39777;DHT22;25453;48.162;14.510;2023-11-19T03:40:59;7.00;77.40
39777;DHT22;25453;48.162;14.510;2023-11-19T03:43:26;7.00;77.50
39777;DHT22;25453;48.162;14.510;2023-11-19T03:45:54;7.00;77.40
39777;DHT22;25453;48.162;14.510;2023-11-19T03:48:21;7.00;77.40
39777;DHT22;25453;48.162;14.510;2023-11-19T03:50:49;7.00;77.40
39777;DHT22;25453;48.162;14.510;2023-11-19T03:53:16;7.00;77.50
39777;DHT22;25453;48.162;14.510;2023-11-19T03:55:43;7.00;77.50
39777;DHT22;25453;48.162;14.510;2023-11-19T03:58:10;7.00;77.50
39777;DHT22;25453;48.162;14.510;2023-11-19T04:00:37;7.00;77.60
39777;DHT22;25453;48.162;14.510;2023-11-19T04:03:04;7.00;77.90
39777;DHT22;25453;48.162;14.510;2023-11-19T04:05:31;7.00;77.70
39777;DHT22;25453;48.162;14.510;2023-11-19T04:07:58;7.00;77.90
39777;DHT22;25453;48.162;14.510;2023-11-19T04:10:25;7.00;77.90
39777;DHT22;25453;48.162;14.510;2023-11-19T04:12:54;7.00;77.70
39777;DHT22;25453;48.162;14.510;2023-11-19T04:15:21;7.00;77.70
39777;DHT22;25453;48.162;14.510;2023-11-19T04:17:48;7.00;77.90
39777;DHT22;25453;48.162;14.510;2023-11-19T04:20:15;7.00;78.00
39777;DHT22;25453;48.162;14.510;2023-11-19T04:22:42;7.00;78.00
39777;DHT22;25453;48.162;14.510;2023-11-19T04:25:09;7.00;77.90
39777;DHT22;25453;48.162;14.510;2023-11-19T04:27:36;7.00;78.00
39777;DHT22;25453;48.162;14.510;2023-11-19T04:30:03;7.00;78.10
39777;DHT22;25453;48.162;14.510;2023-11-19T04:32:31;7.00;78.10
39777;DHT22;25453;48.162;14.510;2023-11-19T04:34:58;7.00;78.10
39777;DHT22;25453;48.162;14.510;2023-11-19T04:37:25;7.00;78.10
39777;DHT22;25453;48.162;14.510;2023-11-19T04:39:52;7.10;78.20
39777;DHT22;25453;48.162;14.510;2023-11-19T04:42:22;7.10;78.10
39777;DHT22;25453;48.162;14.510;2023-11-19T04:44:49;7.10;78.10
39777;DHT22;25453;48.162;14.510;2023-11-19T04:47:16;7.00;78.00
39777;DHT22;25453;48.162;14.510;2023-11-19T04:49:43;7.00;78.10
39777;DHT22;25453;48.162;14.510;2023-11-19T04:52:10;7.00;78.20
39777;DHT22;25453;48.162;14.510;2023-11-19T04:54:42;7.00;78.30
39777;DHT22;25453;48.162;14.510;2023-11-19T04:57:10;7.00;78.30
39777;DHT22;25453;48.162;14.510;2023-11-19T04:59:37;7.00;78.30
39777;DHT22;25453;48.162;14.510;2023-11-19T05:02:05;7.00;78.40
39777;DHT22;25453;48.162;14.510;2023-11-19T05:04:32;7.00;78.50
39777;DHT22;25453;48.162;14.510;2023-11-19T05:06:59;7.00;78.60
39777;DHT22;25453;48.162;14.510;2023-11-19T05:09:26;7.00;78.60
39777;DHT22;25453;48.162;14.510;2023-11-19T05:11:53;7.00;78.70
39777;DHT22;25453;48.162;14.510;2023-11-19T05:14:20;7.00;78.70
39777;DHT22;25453;48.162;14.510;2023-11-19T05:16:48;7.00;78.70
39777;DHT22;25453;48.162;14.510;2023-11-19T05:19:16;7.00;78.70
39777;DHT22;25453;48.162;14.510;2023-11-19T05:21:43;7.00;78.90
39777;DHT22;25453;48.162;14.510;2023-11-19T05:24:10;7.00;78.80
39777;DHT22;25453;48.162;14.510;2023-11-19T05:26:38;7.00;78.80
39777;DHT22;25453;48.162;14.510;2023-11-19T05:29:05;7.00;78.90
39777;DHT22;25453;48.162;14.510;2023-11-19T05:31:32;7.10;78.80
39777;DHT22;25453;48.162;14.510;2023-11-19T05:34:03;7.10;78.80
39777;DHT22;25453;48.162;14.510;2023-11-19T05:36:32;7.10;78.80
39777;DHT22;25453;48.162;14.510;2023-11-19T05:38:59;7.00;78.70
39777;DHT22;25453;48.162;14.510;2023-11-19T05:41:26;7.10;78.90
39777;DHT22;25453;48.162;14.510;2023-11-19T05:43:54;7.10;78.80
39777;DHT22;25453;48.162;14.510;2023-11-19T05:46:21;7.10;78.70
39777;DHT22;25453;48.162;14.510;2023-11-19T05:48:48;7.00;78.80
39777;DHT22;25453;48.162;14.510;2023-11-19T05:51:15;7.00;78.90
39777;DHT22;25453;48.162;14.510;2023-11-19T05:53:43;7.10;78.80
39777;DHT22;25453;48.162;14.510;2023-11-19T05:56:10;7.10;79.00
39777;DHT22;25453;48.162;14.510;2023-11-19T05:58:37;7.10;79.00
39777;DHT22;25453;48.162;14.510;2023-11-19T06:01:06;7.10;79.00
39777;DHT22;25453;48.162;14.510;2023-11-19T06:03:35;7.10;79.10
39777;DHT22;25453;48.162;14.510;2023-11-19T06:06:03;7.10;79.10
39777;DHT22;25453;48.162;14.510;2023-11-19T06:08:32;7.20;79.10
39777;DHT22;25453;48.162;14.510;2023-11-19T06:10:59;7.20;78.90
39777;DHT22;25453;48.162;14.510;2023-11-19T06:13:28;7.20;78.80
39777;DHT22;25453;48.162;14.510;2023-11-19T06:15:58;7.20;78.90
39777;DHT22;25453;48.162;14.510;2023-11-19T06:18:25;7.20;79.10
39777;DHT22;25453;48.162;14.510;2023-11-19T06:20:52;7.20;79.10
39777;DHT22;25453;48.162;14.510;2023-11-19T06:23:19;7.20;78.90
39777;DHT22;25453;48.162;14.510;2023-11-19T06:25:46;7.20;79.00
39777;DHT22;25453;48.162;14.510;2023-11-19T06:28:13;7.20;78.90
39777;DHT22;25453;48.162;14.510;2023-11-19T06:30:41;7.20;79.30
39777;DHT22;25453;48.162;14.510;2023-11-19T06:33:09;7.20;79.40
39777;DHT22;25453;48.162;14.510;2023-11-19T06:35:39;7.30;79.50
39777;DHT22;25453;48.162;14.510;2023-11-19T06:38:06;7.30;79.40
39777;DHT22;25453;48.162;14.510;2023-11-19T06:40:33;7.30;79.20
39777;DHT22;25453;48.162;14.510;2023-11-19T06:43:02;7.30;78.90
39777;DHT22;25453;48.162;14.510;2023-11-19T06:45:30;7.30;78.90
39777;DHT22;25453;48.162;14.510;2023-11-19T06:47:58;7.20;78.80
39777;DHT22;25453;48.162;14.510;2023-11-19T06:50:27;7.20;79.10
39777;DHT22;25453;48.162;14.510;2023-11-19T06:52:55;7.20;79.10
39777;DHT22;25453;48.162;14.510;2023-11-19T06:55:22;7.20;79.10
39777;DHT22;25453;48.162;14.510;2023-11-19T06:57:49;7.20;79.50
39777;DHT22;25453;48.162;14.510;2023-11-19T07:00:16;7.20;79.40
39777;DHT22;25453;48.162;14.510;2023-11-19T07:02:44;7.20;79.00
39777;DHT22;25453;48.162;14.510;2023-11-19T07:05:11;7.20;79.20
39777;DHT22;25453;48.162;14.510;2023-11-19T07:07:40;7.30;79.50
39777;DHT22;25453;48.162;14.510;2023-11-19T07:10:07;7.30;79.20
39777;DHT22;25453;48.162;14.510;2023-11-19T07:12:36;7.30;79.00
39777;DHT22;25453;48.162;14.510;2023-11-19T07:15:03;7.30;79.30
39777;DHT22;25453;48.162;14.510;2023-11-19T07:17:31;7.30;79.60
39777;DHT22;25453;48.162;14.510;2023-11-19T07:19:58;7.40;79.80
39777;DHT22;25453;48.162;14.510;2023-11-19T07:22:26;7.50;79.80
39777;DHT22;25453;48.162;14.510;2023-11-19T07:24:56;7.50;79.80
39777;DHT22;25453;48.162;14.510;2023-11-19T07:27:23;7.60;79.80
39777;DHT22;25453;48.162;14.510;2023-11-19T07:29:51;7.60;79.50
39777;DHT22;25453;48.162;14.510;2023-11-19T07:32:18;7.60;79.20
39777;DHT22;25453;48.162;14.510;2023-11-19T07:34:46;7.50;79.10
39777;DHT22;25453;48.162;14.510;2023-11-19T07:37:16;7.50;79.10
39777;DHT22;25453;48.162;14.510;2023-11-19T07:39:43;7.50;79.40
39777;DHT22;25453;48.162;14.510;2023-11-19T07:42:10;7.50;79.40
39777;DHT22;25453;48.162;14.510;2023-11-19T07:44:37;7.50;79.30
39777;DHT22;25453;48.162;14.510;2023-11-19T07:47:04;7.50;79.40
39777;DHT22;25453;48.162;14.510;2023-11-19T07:49:31;7.50;79.70
39777;DHT22;25453;48.162;14.510;2023-11-19T07:51:58;7.50;79.60
39777;DHT22;25453;48.162;14.510;2023-11-19T07:54:25;7.50;79.60
39777;DHT22;25453;48.162;14.510;2023-11-19T07:56:52;7.50;79.50
39777;DHT22;25453;48.162;14.510;2023-11-19T07:59:20;7.50;79.30
39777;DHT22;25453;48.162;14.510;2023-11-19T08:01:47;7.50;79.60
39777;DHT22;25453;48.162;14.510;2023-11-19T08:04:14;7.50;79.60
39777;DHT22;25453;48.162;14.510;2023-11-19T08:06:42;7.50;79.50
39777;DHT22;25453;48.162;14.510;2023-11-19T08:09:09;7.50;79.70
39777;DHT22;25453;48.162;14.510;2023-11-19T08:11:41;7.60;79.70
39777;DHT22;25453;48.162;14.510;2023-11-19T08:14:08;7.60;79.70
39777;DHT22;25453;48.162;14.510;2023-11-19T08:16:35;7.60;79.60
39777;DHT22;25453;48.162;14.510;2023-11-19T08:19:04;7.60;79.70
39777;DHT22;25453;48.162;14.510;2023-11-19T08:21:31;7.60;79.60
39777;DHT22;25453;48.162;14.510;2023-11-19T08:23:59;7.60;79.70
39777;DHT22;25453;48.162;14.510;2023-11-19T08:26:26;7.60;79.80
39777;DHT22;25453;48.162;14.510;2023-11-19T08:28:53;7.60;79.70
39777;DHT22;25453;48.162;14.510;2023-11-19T08:31:20;7.60;79.80
39777;DHT22;25453;48.162;14.510;2023-11-19T08:33:47;7.60;79.80
39777;DHT22;25453;48.162;14.510;2023-11-19T08:36:17;7.60;79.90
39777;DHT22;25453;48.162;14.510;2023-11-19T08:38:44;7.70;79.90
39777;DHT22;25453;48.162;14.510;2023-11-19T08:41:11;7.70;79.80
39777;DHT22;25453;48.162;14.510;2023-11-19T08:43:38;7.70;79.90
39777;DHT22;25453;48.162;14.510;2023-11-19T08:46:09;7.70;80.00
39777;DHT22;25453;48.162;14.510;2023-11-19T08:48:36;7.80;80.00
39777;DHT22;25453;48.162;14.510;2023-11-19T08:51:03;7.80;80.00
39777;DHT22;25453;48.162;14.510;2023-11-19T08:53:31;7.80;79.80
39777;DHT22;25453;48.162;14.510;2023-11-19T08:55:58;7.80;79.90
39777;DHT22;25453;48.162;14.510;2023-11-19T08:58:25;7.80;80.00
39777;DHT22;25453;48.162;14.510;2023-11-19T09:00:52;7.80;79.80
39777;DHT22;25453;48.162;14.510;2023-11-19T09:03:19;7.80;79.80
39777;DHT22;25453;48.162;14.510;2023-11-19T09:05:47;7.80;79.80
39777;DHT22;25453;48.162;14.510;2023-11-19T09:08:14;7.80;79.80
39777;DHT22;25453;48.162;14.510;2023-11-19T09:10:41;7.80;79.90
39777;DHT22;25453;48.162;14.510;2023-11-19T09:13:08;7.80;80.00
39777;DHT22;25453;48.162;14.510;2023-11-19T09:15:35;7.80;79.80
39777;DHT22;25453;48.162;14.510;2023-11-19T09:18:02;7.80;79.90
39777;DHT22;25453;48.162;14.510;2023-11-19T09:20:29;7.80;79.90
39777;DHT22;25453;48.162;14.510;2023-11-19T09:23:05;7.80;79.80
39777;DHT22;25453;48.162;14.510;2023-11-19T09:25:33;7.80;80.00
39777;DHT22;25453;48.162;14.510;2023-11-19T09:28:03;7.90;80.00
39777;DHT22;25453;48.162;14.510;2023-11-19T09:30:30;7.90;80.00
39777;DHT22;25453;48.162;14.510;2023-11-19T09:33:01;7.90;80.00
39777;DHT22;25453;48.162;14.510;2023-11-19T09:35:29;7.90;79.80
39777;DHT22;25453;48.162;14.510;2023-11-19T09:37:58;7.90;79.80
39777;DHT22;25453;48.162;14.510;2023-11-19T09:40:27;7.90;79.80
39777;DHT22;25453;48.162;14.510;2023-11-19T09:42:55;7.80;79.90
39777;DHT22;25453;48.162;14.510;2023-11-19T09:45:22;7.80;80.00
39777;DHT22;25453;48.162;14.510;2023-11-19T09:47:52;7.80;80.20
39777;DHT22;25453;48.162;14.510;2023-11-19T09:50:20;7.90;80.20
39777;DHT22;25453;48.162;14.510;2023-11-19T09:52:47;7.90;80.20
39777;DHT22;25453;48.162;14.510;2023-11-19T09:55:14;7.90;80.20
39777;DHT22;25453;48.162;14.510;2023-11-19T09:57:41;7.90;80.10
39777;DHT22;25453;48.162;14.510;2023-11-19T10:00:11;7.90;79.90
39777;DHT22;25453;48.162;14.510;2023-11-19T10:02:40;7.90;80.00
39777;DHT22;25453;48.162;14.510;2023-11-19T10:05:08;7.90;80.20
39777;DHT22;25453;48.162;14.510;2023-11-19T10:07:37;7.90;80.30
39777;DHT22;25453;48.162;14.510;2023-11-19T10:10:04;7.90;80.30
39777;DHT22;25453;48.162;14.510;2023-11-19T10:12:31;7.90;80.10
39777;DHT22;25453;48.162;14.510;2023-11-19T10:14:58;7.90;80.00
39777;DHT22;25453;48.162;14.510;2023-11-19T10:17:29;7.90;80.00
39777;DHT22;25453;48.162;14.510;2023-11-19T10:19:56;7.90;80.10
39777;DHT22;25453;48.162;14.510;2023-11-19T10:22:23;7.90;80.40
39777;DHT22;25453;48.162;14.510;2023-11-19T10:24:51;7.90;80.30
39777;DHT22;25453;48.162;14.510;2023-11-19T10:27:24;8.00;80.30
39777;DHT22;25453;48.162;14.510;2023-11-19T10:29:51;8.00;80.20
39777;DHT22;25453;48.162;14.510;2023-11-19T10:32:18;7.90;80.20
39777;DHT22;25453;48.162;14.510;2023-11-19T10:35:03;7.90;80.30
39777;DHT22;25453;48.162;14.510;2023-11-19T10:37:31;7.90;80.30
39777;DHT22;25453;48.162;14.510;2023-11-19T10:40:00;7.90;80.50
39777;DHT22;25453;48.162;14.510;2023-11-19T10:42:27;7.90;80.50
39777;DHT22;25453;48.162;14.510;2023-11-19T10:44:54;7.90;80.60
39777;DHT22;25453;48.162;14.510;2023-11-19T10:47:21;7.90;80.70
39777;DHT22;25453;48.162;14.510;2023-11-19T10:49:52;8.00;80.80
39777;DHT22;25453;48.162;14.510;2023-11-19T10:52:19;8.00;81.00
39777;DHT22;25453;48.162;14.510;2023-11-19T10:54:50;8.10;80.90
39777;DHT22;25453;48.162;14.510;2023-11-19T10:57:20;8.10;80.90
39777;DHT22;25453;48.162;14.510;2023-11-19T10:59:54;8.10;80.90
39777;DHT22;25453;48.162;14.510;2023-11-19T11:02:23;8.10;80.80
39777;DHT22;25453;48.162;14.510;2023-11-19T11:04:51;8.10;80.50
39777;DHT22;25453;48.162;14.510;2023-11-19T11:07:19;8.10;80.60
39777;DHT22;25453;48.162;14.510;2023-11-19T11:09:53;8.10;80.40
39777;DHT22;25453;48.162;14.510;2023-11-19T11:12:21;8.00;80.60
39777;DHT22;25453;48.162;14.510;2023-11-19T11:14:50;8.10;80.80
39777;DHT22;25453;48.162;14.510;2023-11-19T11:17:19;8.10;80.80
39777;DHT22;25453;48.162;14.510;2023-11-19T11:19:50;8.10;80.80
39777;DHT22;25453;48.162;14.510;2023-11-19T11:22:17;8.10;80.50
39777;DHT22;25453;48.162;14.510;2023-11-19T11:25:19;8.10;80.60
39777;DHT22;25453;48.162;14.510;2023-11-19T11:28:37;8.00;80.70
39777;DHT22;25453;48.162;14.510;2023-11-19T11:30:51;8.00;80.90
39777;DHT22;25453;48.162;14.510;2023-11-19T11:35:52;8.50;84.90
39777;DHT22;25453;48.162;14.510;2023-11-19T11:38:23;9.00;84.70
39777;DHT22;25453;48.162;14.510;2023-11-19T11:49:01;8.90;79.80
39777;DHT22;25453;48.162;14.510;2023-11-19T11:57:01;8.60;80.30
39777;DHT22;25453;48.162;14.510;2023-11-19T11:59:42;8.60;80.40
39777;DHT22;25453;48.162;14.510;2023-11-19T12:02:10;8.60;80.40
39777;DHT22;25453;48.162;14.510;2023-11-19T12:04:37;8.60;80.30
39777;DHT22;25453;48.162;14.510;2023-11-19T12:09:32;8.50;80.20
39777;DHT22;25453;48.162;14.510;2023-11-19T12:12:34;8.50;80.30
39777;DHT22;25453;48.162;14.510;2023-11-19T12:15:00;8.60;80.30
39777;DHT22;25453;48.162;14.510;2023-11-19T12:20:00;8.60;80.50
39777;DHT22;25453;48.162;14.510;2023-11-19T12:22:28;8.60;80.40
39777;DHT22;25453;48.162;14.510;2023-11-19T12:24:55;8.60;80.20
39777;DHT22;25453;48.162;14.510;2023-11-19T12:27:23;8.50;80.20
39777;DHT22;25453;48.162;14.510;2023-11-19T12:29:49;8.50;80.30
39777;DHT22;25453;48.162;14.510;2023-11-19T12:32:17;8.60;80.50
39777;DHT22;25453;48.162;14.510;2023-11-19T12:34:45;8.60;80.90
39777;DHT22;25453;48.162;14.510;2023-11-19T12:37:12;8.70;80.90
39777;DHT22;25453;48.162;14.510;2023-11-19T12:39:39;8.80;80.80
39777;DHT22;25453;48.162;14.510;2023-11-19T12:42:07;8.80;80.70
39777;DHT22;25453;48.162;14.510;2023-11-19T12:44:34;8.90;80.80
39777;DHT22;25453;48.162;14.510;2023-11-19T12:49:28;8.90;80.50
39777;DHT22;25453;48.162;14.510;2023-11-19T12:51:55;8.90;80.40
39777;DHT22;25453;48.162;14.510;2023-11-19T12:54:35;8.90;80.30
39777;DHT22;25453;48.162;14.510;2023-11-19T12:57:03;8.90;80.30
39777;DHT22;25453;48.162;14.510;2023-11-19T12:59:31;8.90;80.30
39777;DHT22;25453;48.162;14.510;2023-11-19T13:01:58;8.90;80.30
39777;DHT22;25453;48.162;14.510;2023-11-19T13:04:29;8.90;80.10
39777;DHT22;25453;48.162;14.510;2023-11-19T13:07:00;8.80;80.10
39777;DHT22;25453;48.162;14.510;2023-11-19T13:09:31;8.80;80.30
39777;DHT22;25453;48.162;14.510;2023-11-19T13:11:59;8.80;80.30
39777;DHT22;25453;48.162;14.510;2023-11-19T13:14:36;8.70;80.30
39777;DHT22;25453;48.162;14.510;2023-11-19T13:17:12;8.70;80.60
39777;DHT22;25453;48.162;14.510;2023-11-19T13:19:39;8.70;80.50
39777;DHT22;25453;48.162;14.510;2023-11-19T13:22:06;8.70;80.60
39777;DHT22;25453;48.162;14.510;2023-11-19T13:24:33;8.80;80.80
39777;DHT22;25453;48.162;14.510;2023-11-19T13:27:00;8.80;80.80
39777;DHT22;25453;48.162;14.510;2023-11-19T13:29:27;8.80;80.90
39777;DHT22;25453;48.162;14.510;2023-11-19T13:31:57;8.90;80.80
39777;DHT22;25453;48.162;14.510;2023-11-19T13:34:25;8.90;80.90
39777;DHT22;25453;48.162;14.510;2023-11-19T13:36:52;8.90;80.90
39777;DHT22;25453;48.162;14.510;2023-11-19T13:39:19;9.00;80.90
39777;DHT22;25453;48.162;14.510;2023-11-19T13:41:49;8.90;80.40
39777;DHT22;25453;48.162;14.510;2023-11-19T13:44:17;8.90;80.70
39777;DHT22;25453;48.162;14.510;2023-11-19T13:46:45;8.90;80.90
39777;DHT22;25453;48.162;14.510;2023-11-19T13:49:13;8.90;81.10
39777;DHT22;25453;48.162;14.510;2023-11-19T13:51:40;9.00;81.10
39777;DHT22;25453;48.162;14.510;2023-11-19T13:54:07;9.00;81.10
39777;DHT22;25453;48.162;14.510;2023-11-19T13:56:34;9.00;81.20
39777;DHT22;25453;48.162;14.510;2023-11-19T13:59:01;9.00;81.20
39777;DHT22;25453;48.162;14.510;2023-11-19T14:01:29;9.10;81.20
39777;DHT22;25453;48.162;14.510;2023-11-19T14:03:56;9.10;81.10
39777;DHT22;25453;48.162;14.510;2023-11-19T14:06:23;9.10;81.20
39777;DHT22;25453;48.162;14.510;2023-11-19T14:08:50;9.10;81.30
39777;DHT22;25453;48.162;14.510;2023-11-19T14:11:17;9.10;81.40
39777;DHT22;25453;48.162;14.510;2023-11-19T14:13:44;9.10;81.50
39777;DHT22;25453;48.162;14.510;2023-11-19T14:16:13;9.20;81.50
39777;DHT22;25453;48.162;14.510;2023-11-19T14:18:40;9.20;81.50
39777;DHT22;25453;48.162;14.510;2023-11-19T14:21:07;9.30;81.50
39777;DHT22;25453;48.162;14.510;2023-11-19T14:23:34;9.30;81.40
39777;DHT22;25453;48.162;14.510;2023-11-19T14:26:01;9.30;81.50
39777;DHT22;25453;48.162;14.510;2023-11-19T14:28:29;9.30;81.40
39777;DHT22;25453;48.162;14.510;2023-11-19T14:30:58;9.30;81.30
39777;DHT22;25453;48.162;14.510;2023-11-19T14:33:25;9.30;81.30
39777;DHT22;25453;48.162;14.510;2023-11-19T14:35:52;9.30;81.30
39777;DHT22;25453;48.162;14.510;2023-11-19T14:38:19;9.30;81.40
39777;DHT22;25453;48.162;14.510;2023-11-19T14:40:47;9.30;81.60
39777;DHT22;25453;48.162;14.510;2023-11-19T14:43:14;9.30;81.70
39777;DHT22;25453;48.162;14.510;2023-11-19T14:45:42;9.30;81.60
39777;DHT22;25453;48.162;14.510;2023-11-19T14:48:16;9.30;81.50
39777;DHT22;25453;48.162;14.510;2023-11-19T14:50:44;9.30;81.50
39777;DHT22;25453;48.162;14.510;2023-11-19T14:53:11;9.30;81.60
39777;DHT22;25453;48.162;14.510;2023-11-19T14:55:41;9.20;81.80
39777;DHT22;25453;48.162;14.510;2023-11-19T14:58:08;9.20;81.80
39777;DHT22;25453;48.162;14.510;2023-11-19T15:00:40;9.30;81.70
39777;DHT22;25453;48.162;14.510;2023-11-19T15:03:07;9.20;81.80
39777;DHT22;25453;48.162;14.510;2023-11-19T15:05:36;9.20;81.90
39777;DHT22;25453;48.162;14.510;2023-11-19T15:08:03;9.20;81.80
39777;DHT22;25453;48.162;14.510;2023-11-19T15:10:30;9.20;82.00
39777;DHT22;25453;48.162;14.510;2023-11-19T15:12:57;9.20;82.00
39777;DHT22;25453;48.162;14.510;2023-11-19T15:15:24;9.20;82.10
39777;DHT22;25453;48.162;14.510;2023-11-19T15:17:55;9.20;82.10
39777;DHT22;25453;48.162;14.510;2023-11-19T15:20:22;9.20;82.00
39777;DHT22;25453;48.162;14.510;2023-11-19T15:22:50;9.10;82.10
39777;DHT22;25453;48.162;14.510;2023-11-19T15:25:17;9.10;82.20
39777;DHT22;25453;48.162;14.510;2023-11-19T15:27:44;9.10;82.00
39777;DHT22;25453;48.162;14.510;2023-11-19T15:30:11;9.00;81.80
39777;DHT22;25453;48.162;14.510;2023-11-19T15:32:38;8.90;81.80
39777;DHT22;25453;48.162;14.510;2023-11-19T15:35:06;8.90;81.80
39777;DHT22;25453;48.162;14.510;2023-11-19T15:37:43;8.80;82.00
39777;DHT22;25453;48.162;14.510;2023-11-19T15:40:12;8.80;82.20
39777;DHT22;25453;48.162;14.510;2023-11-19T15:42:40;8.70;82.30
39777;DHT22;25453;48.162;14.510;2023-11-19T15:45:07;8.70;82.40
39777;DHT22;25453;48.162;14.510;2023-11-19T15:47:34;8.70;82.50
39777;DHT22;25453;48.162;14.510;2023-11-19T15:50:05;8.70;82.50
39777;DHT22;25453;48.162;14.510;2023-11-19T15:52:34;8.70;82.60
39777;DHT22;25453;48.162;14.510;2023-11-19T15:55:01;8.70;82.70
39777;DHT22;25453;48.162;14.510;2023-11-19T15:57:27;8.70;82.70
39777;DHT22;25453;48.162;14.510;2023-11-19T15:59:55;8.70;82.70